createdAt,value
2018-07-26T00:01:15.643Z,25.20
2018-07-26T00:03:46.023Z,25.10
2018-07-26T00:06:15.655Z,25.10
2018-07-26T00:08:45.569Z,22.00
2018-07-26T00:11:21.442Z,25.10
2018-07-26T00:13:51.733Z,25.10
2018-07-26T00:16:21.266Z,25.10
2018-07-26T00:18:51.454Z,25.00
2018-07-26T00:21:21.050Z,25.00
2018-07-26T00:23:59.897Z,25.00
2018-07-26T00:26:29.784Z,25.00
2018-07-26T00:28:59.399Z,25.00
2018-07-26T00:31:29.061Z,24.80
2018-07-26T00:33:59.930Z,24.80
2018-07-26T00:38:58.505Z,24.80
2018-07-26T00:41:37.808Z,24.70
2018-07-26T00:44:07.836Z,24.70
2018-07-26T00:46:53.485Z,24.70
2018-07-26T00:49:23.046Z,24.60
2018-07-26T00:51:52.935Z,24.50
2018-07-26T00:54:22.556Z,24.60
2018-07-26T00:56:52.136Z,24.60
2018-07-26T00:59:22.136Z,24.50
2018-07-26T01:01:51.854Z,24.60
2018-07-26T01:04:36.664Z,24.60
2018-07-26T01:07:12.675Z,24.50
2018-07-26T01:09:52.277Z,24.50
2018-07-26T01:12:22.209Z,24.50
2018-07-26T01:17:22.361Z,24.50
2018-07-26T01:19:52.871Z,24.50
2018-07-26T01:22:28.040Z,24.50
2018-07-26T01:24:57.600Z,24.40
2018-07-26T01:27:27.998Z,24.30
2018-07-26T01:29:57.626Z,24.20
2018-07-26T01:32:27.325Z,24.30
2018-07-26T01:34:57.289Z,24.20
2018-07-26T01:40:01.520Z,23.90
2018-07-26T01:42:36.490Z,23.90
2018-07-26T01:45:06.148Z,23.90
2018-07-26T01:47:35.732Z,23.90
2018-07-26T01:50:07.336Z,23.90
2018-07-26T01:52:43.457Z,23.90
2018-07-26T01:55:13.833Z,24.00
2018-07-26T01:57:43.512Z,23.90
2018-07-26T02:02:42.377Z,23.90
2018-07-26T02:05:11.932Z,23.80
2018-07-26T02:07:41.538Z,23.70
2018-07-26T02:12:40.088Z,23.60
2018-07-26T02:15:10.032Z,23.70
2018-07-26T02:17:39.815Z,23.70
2018-07-26T02:20:09.447Z,23.70
2018-07-26T02:22:39.384Z,23.70
2018-07-26T02:25:09.058Z,23.50
2018-07-26T02:27:40.383Z,23.40
2018-07-26T02:30:10.298Z,23.50
2018-07-26T02:32:44.701Z,23.60
2018-07-26T02:35:14.291Z,23.60
2018-07-26T02:37:44.470Z,23.50
2018-07-26T02:40:14.010Z,23.60
2018-07-26T02:42:43.613Z,23.60
2018-07-26T02:46:32.515Z,23.50
2018-07-26T02:49:02.135Z,23.50
2018-07-26T02:51:32.002Z,23.30
2018-07-26T02:54:01.583Z,23.20
2018-07-26T02:56:31.164Z,23.20
2018-07-26T02:59:01.125Z,23.20
2018-07-26T03:01:30.651Z,23.30
2018-07-26T03:04:00.142Z,23.30
2018-07-26T03:06:29.886Z,23.20
2018-07-26T03:08:59.434Z,23.20
2018-07-26T03:11:28.935Z,23.20
2018-07-26T03:13:58.725Z,23.20
2018-07-26T03:16:28.264Z,23.20
2018-07-26T03:18:57.919Z,23.20
2018-07-26T03:21:36.129Z,23.20
2018-07-26T03:24:05.684Z,23.20
2018-07-26T03:26:51.276Z,23.20
2018-07-26T03:29:21.042Z,23.10
2018-07-26T03:31:50.874Z,23.10
2018-07-26T03:34:20.493Z,23.10
2018-07-26T03:36:55.854Z,23.20
2018-07-26T03:39:25.674Z,23.20
2018-07-26T03:41:55.188Z,23.10
2018-07-26T03:44:24.676Z,23.20
2018-07-26T03:47:06.294Z,23.20
2018-07-26T03:49:35.860Z,23.10
2018-07-26T03:52:05.866Z,23.10
2018-07-26T03:54:35.475Z,23.10
2018-07-26T03:57:05.205Z,23.00
2018-07-26T03:59:35.052Z,22.90
2018-07-26T04:02:10.288Z,22.90
2018-07-26T04:07:14.998Z,22.90
2018-07-26T04:09:44.601Z,22.80
2018-07-26T04:12:14.153Z,22.80
2018-07-26T04:14:44.118Z,22.70
2018-07-26T04:17:13.560Z,21.30
2018-07-26T04:19:43.052Z,22.70
2018-07-26T04:22:12.890Z,24.10
2018-07-26T04:24:42.389Z,22.90
2018-07-26T04:27:11.961Z,22.90
2018-07-26T04:29:41.969Z,22.90
2018-07-26T04:32:24.440Z,22.90
2018-07-26T04:34:54.301Z,23.00
2018-07-26T04:37:23.823Z,23.00
2018-07-26T04:39:53.869Z,23.10
2018-07-26T04:42:23.659Z,23.20
2018-07-26T04:44:53.186Z,23.30
2018-07-26T04:47:22.683Z,23.50
2018-07-26T04:49:52.589Z,23.50
2018-07-26T04:52:22.193Z,23.50
2018-07-26T04:54:51.831Z,23.60
2018-07-26T04:57:33.410Z,23.50
2018-07-26T05:00:03.004Z,23.50
2018-07-26T05:02:33.453Z,23.50
2018-07-26T05:05:10.543Z,23.60
2018-07-26T05:07:40.133Z,23.70
2018-07-26T05:10:10.016Z,23.80
2018-07-26T05:12:47.666Z,23.80
2018-07-26T05:15:17.483Z,23.90
2018-07-26T05:17:47.084Z,23.90
2018-07-26T05:20:23.726Z,23.80
2018-07-26T05:22:55.467Z,23.70
2018-07-26T05:25:24.991Z,23.90
2018-07-26T05:27:54.752Z,23.70
2018-07-26T05:30:24.660Z,23.90
2018-07-26T05:33:01.428Z,23.90
2018-07-26T05:35:31.000Z,21.60
2018-07-26T05:38:06.133Z,24.10
2018-07-26T05:40:35.718Z,23.70
2018-07-26T05:43:05.892Z,23.70
2018-07-26T05:45:35.355Z,23.70
2018-07-26T05:48:04.950Z,23.80
2018-07-26T05:50:34.532Z,24.00
2018-07-26T05:53:04.194Z,24.10
2018-07-26T05:55:33.899Z,24.10
2018-07-26T05:58:03.712Z,24.20
2018-07-26T06:00:33.307Z,24.30
2018-07-26T06:03:02.856Z,24.30
2018-07-26T06:05:32.730Z,24.40
2018-07-26T06:08:02.566Z,24.20
2018-07-26T06:10:32.057Z,24.30
2018-07-26T06:13:01.933Z,24.40
2018-07-26T06:15:31.757Z,24.50
2018-07-26T06:18:05.508Z,24.30
2018-07-26T06:20:35.298Z,24.20
2018-07-26T06:23:04.935Z,24.40
2018-07-26T06:25:34.554Z,24.40
2018-07-26T06:28:13.908Z,24.40
2018-07-26T06:30:43.494Z,24.40
2018-07-26T06:33:13.410Z,23.40
2018-07-26T06:35:42.961Z,24.80
2018-07-26T06:38:12.668Z,24.90
2018-07-26T06:40:43.250Z,25.00
2018-07-26T06:43:12.814Z,25.10
2018-07-26T06:45:42.390Z,25.30
2018-07-26T06:50:49.163Z,25.30
2018-07-26T06:53:19.051Z,25.20
2018-07-26T06:55:56.241Z,25.30
2018-07-26T06:58:25.938Z,25.30
2018-07-26T07:00:55.991Z,25.50
2018-07-26T07:03:25.671Z,25.70
2018-07-26T07:05:55.359Z,25.80
2018-07-26T07:08:26.005Z,25.90
2018-07-26T07:10:55.793Z,25.90
2018-07-26T07:13:25.511Z,26.10
2018-07-26T07:15:55.890Z,26.10
2018-07-26T07:18:25.720Z,26.20
2018-07-26T07:20:55.475Z,26.50
2018-07-26T07:23:25.344Z,26.60
2018-07-26T07:25:54.940Z,26.70
2018-07-26T07:28:24.510Z,26.70
2018-07-26T07:30:54.603Z,26.70
2018-07-26T07:33:31.025Z,26.70
2018-07-26T07:36:00.700Z,26.90
2018-07-26T07:38:37.176Z,27.10
2018-07-26T07:41:06.754Z,27.20
2018-07-26T07:43:36.699Z,27.30
2018-07-26T07:46:06.442Z,27.40
2018-07-26T07:48:36.173Z,27.50
2018-07-26T07:51:20.410Z,27.60
2018-07-26T07:53:50.165Z,27.80
2018-07-26T07:56:20.089Z,27.60
2018-07-26T07:58:49.794Z,28.00
2018-07-26T08:01:19.482Z,28.00
2018-07-26T08:03:49.415Z,28.10
2018-07-26T08:06:19.297Z,28.20
2018-07-26T08:08:49.250Z,28.30
2018-07-26T08:11:19.220Z,28.50
2018-07-26T08:13:48.819Z,28.50
2018-07-26T08:16:18.278Z,28.60
2018-07-26T08:18:48.352Z,28.70
2018-07-26T08:21:18.403Z,28.80
2018-07-26T08:23:48.015Z,28.80
2018-07-26T08:26:17.931Z,29.00
2018-07-26T08:28:47.651Z,27.90
2018-07-26T08:31:17.141Z,29.20
2018-07-26T08:33:46.968Z,29.30
2018-07-26T08:36:16.773Z,29.50
2018-07-26T08:38:46.359Z,29.50
2018-07-26T08:44:09.089Z,29.90
2018-07-26T08:47:12.227Z,30.00
2018-07-26T08:49:57.389Z,30.10
2018-07-26T08:52:28.216Z,30.50
2018-07-26T08:54:57.998Z,30.70
2018-07-26T08:57:28.300Z,30.80
2018-07-26T09:00:06.380Z,31.00
2018-07-26T09:02:35.999Z,31.00
2018-07-26T09:05:05.928Z,28.40
2018-07-26T09:07:35.770Z,31.30
2018-07-26T09:10:05.649Z,31.30
2018-07-26T09:12:35.200Z,31.30
2018-07-26T09:15:12.566Z,28.80
2018-07-26T09:17:42.036Z,31.80
2018-07-26T09:20:12.270Z,31.80
2018-07-26T09:22:41.847Z,31.80
2018-07-26T09:25:11.395Z,31.70
2018-07-26T09:27:41.271Z,31.90
2018-07-26T09:30:11.614Z,31.70
2018-07-26T09:32:41.447Z,31.50
2018-07-26T09:35:11.289Z,32.00
2018-07-26T09:37:50.146Z,32.00
2018-07-26T09:40:25.500Z,31.90
2018-07-26T09:42:58.567Z,32.10
2018-07-26T09:45:55.164Z,32.20
2018-07-26T09:48:35.452Z,32.50
2018-07-26T09:51:21.002Z,32.60
2018-07-26T09:54:08.375Z,32.30
2018-07-26T09:56:39.545Z,32.40
2018-07-26T09:59:18.978Z,32.60
2018-07-26T10:01:54.170Z,32.90
2018-07-26T10:04:29.663Z,32.90
2018-07-26T10:07:12.560Z,33.20
2018-07-26T10:09:52.351Z,33.10
2018-07-26T10:12:25.141Z,32.90
2018-07-26T10:14:57.495Z,33.20
2018-07-26T10:17:31.862Z,33.40
2018-07-26T10:20:02.369Z,33.30
2018-07-26T10:22:32.893Z,33.40
2018-07-26T10:25:06.503Z,33.60
2018-07-26T10:27:50.634Z,33.30
2018-07-26T10:30:26.060Z,33.20
2018-07-26T10:33:00.094Z,33.10
2018-07-26T10:35:42.821Z,30.60
2018-07-26T10:38:20.598Z,33.20
2018-07-26T10:41:06.509Z,33.30
2018-07-26T10:43:42.573Z,33.60
2018-07-26T10:46:30.787Z,33.70
2018-07-26T10:49:04.650Z,33.70
2018-07-26T10:51:38.444Z,33.50
2018-07-26T10:57:10.828Z,33.70
2018-07-26T10:59:50.309Z,33.80
2018-07-26T11:02:31.588Z,33.80
2018-07-26T11:07:50.372Z,33.80
2018-07-26T11:10:32.809Z,33.90
2018-07-26T11:13:25.308Z,34.10
2018-07-26T11:16:10.170Z,34.30
2018-07-26T11:24:26.683Z,34.40
2018-07-26T11:27:05.845Z,34.40
2018-07-26T11:29:35.734Z,34.10
2018-07-26T11:32:09.723Z,34.00
2018-07-26T11:34:39.804Z,34.10
2018-07-26T11:37:09.366Z,34.30
2018-07-26T11:39:39.108Z,34.30
2018-07-26T11:42:09.034Z,34.20
2018-07-26T11:44:38.629Z,34.30
2018-07-26T11:47:08.317Z,33.00
2018-07-26T11:49:38.743Z,33.00
2018-07-26T11:52:08.406Z,34.40
2018-07-26T11:54:37.897Z,34.40
2018-07-26T11:57:08.520Z,34.70
2018-07-26T11:59:40.785Z,35.00
2018-07-26T12:02:15.645Z,38.00
2018-07-26T12:04:45.944Z,34.90
2018-07-26T12:07:21.703Z,34.70
2018-07-26T12:09:51.303Z,34.50
2018-07-26T12:14:50.429Z,34.90
2018-07-26T12:17:20.037Z,32.50
2018-07-26T12:22:19.205Z,35.30
2018-07-26T12:24:49.716Z,35.00
2018-07-26T12:27:19.976Z,35.20
2018-07-26T12:29:49.795Z,35.40
2018-07-26T12:32:25.953Z,35.40
2018-07-26T12:34:56.043Z,35.60
2018-07-26T12:37:41.585Z,35.60
2018-07-26T12:40:11.650Z,35.50
2018-07-26T12:42:41.961Z,35.40
2018-07-26T12:45:11.626Z,35.40
2018-07-26T12:47:48.212Z,35.80
2018-07-26T12:50:17.741Z,36.00
2018-07-26T12:52:48.033Z,36.10
2018-07-26T12:55:17.812Z,36.20
2018-07-26T12:57:47.570Z,36.30
2018-07-26T13:00:18.040Z,33.40
2018-07-26T13:02:48.049Z,36.40
2018-07-26T13:05:17.709Z,38.90
2018-07-26T13:07:48.866Z,35.70
2018-07-26T13:10:19.818Z,35.70
2018-07-26T13:12:51.502Z,36.10
2018-07-26T13:15:25.904Z,36.40
2018-07-26T13:17:55.534Z,36.30
2018-07-26T13:20:25.355Z,36.40
2018-07-26T13:22:55.061Z,36.40
2018-07-26T13:25:24.542Z,36.40
2018-07-26T13:28:06.963Z,36.60
2018-07-26T13:30:36.476Z,36.60
2018-07-26T13:33:06.390Z,36.50
2018-07-26T13:35:36.889Z,36.00
2018-07-26T13:38:15.371Z,36.00
2018-07-26T13:40:45.611Z,36.30
2018-07-26T13:43:16.520Z,36.70
2018-07-26T13:45:56.213Z,36.60
2018-07-26T13:48:26.513Z,36.50
2018-07-26T13:50:55.954Z,36.70
2018-07-26T13:53:25.586Z,36.40
2018-07-26T13:56:09.357Z,36.30
2018-07-26T13:58:43.592Z,36.30
2018-07-26T14:01:13.514Z,33.60
2018-07-26T14:03:43.127Z,36.40
2018-07-26T14:06:21.111Z,35.80
2018-07-26T14:08:51.163Z,35.70
2018-07-26T14:11:20.705Z,36.10
2018-07-26T14:13:55.611Z,37.20
2018-07-26T14:16:40.164Z,37.00
2018-07-26T14:19:10.497Z,36.90
2018-07-26T14:21:41.316Z,37.80
2018-07-26T14:24:16.040Z,38.20
2018-07-26T14:26:45.555Z,37.90
2018-07-26T14:29:15.417Z,38.60
2018-07-26T14:31:44.937Z,36.20
2018-07-26T14:34:14.909Z,39.00
2018-07-26T14:36:45.510Z,36.30
2018-07-26T14:39:15.130Z,35.90
2018-07-26T14:41:44.820Z,35.90
2018-07-26T14:44:14.887Z,34.60
2018-07-26T14:46:45.404Z,36.00
2018-07-26T14:49:15.219Z,35.90
2018-07-26T14:51:44.781Z,36.00
2018-07-26T14:54:16.075Z,36.00
2018-07-26T14:56:45.595Z,37.60
2018-07-26T15:01:45.557Z,35.60
2018-07-26T15:04:15.505Z,35.60
2018-07-26T15:06:55.106Z,35.60
2018-07-26T15:09:25.291Z,35.40
2018-07-26T15:11:54.852Z,35.40
2018-07-26T15:14:24.441Z,35.20
2018-07-26T15:16:55.497Z,35.00
2018-07-26T15:19:25.526Z,35.20
2018-07-26T15:21:55.109Z,35.50
2018-07-26T15:24:35.650Z,37.40
2018-07-26T15:27:05.299Z,36.20
2018-07-26T15:29:35.240Z,36.70
2018-07-26T15:32:47.205Z,37.30
2018-07-26T15:35:21.026Z,37.90
2018-07-26T15:37:56.892Z,38.40
2018-07-26T15:40:34.905Z,38.70
2018-07-26T15:43:11.400Z,39.10
2018-07-26T15:45:42.185Z,39.30
2018-07-26T15:48:12.801Z,39.30
2018-07-26T15:50:42.809Z,39.30
2018-07-26T15:53:12.860Z,39.10
2018-07-26T15:55:43.539Z,38.80
2018-07-26T15:58:13.095Z,37.80
2018-07-26T16:00:48.661Z,38.00
2018-07-26T16:03:18.288Z,37.60
2018-07-26T16:05:48.240Z,37.30
2018-07-26T16:08:17.769Z,37.10
2018-07-26T16:10:47.305Z,36.90
2018-07-26T16:16:05.708Z,33.20
2018-07-26T16:18:35.668Z,36.20
2018-07-26T16:23:39.622Z,35.80
2018-07-26T16:26:10.031Z,35.70
2018-07-26T16:28:39.512Z,35.70
2018-07-26T16:31:09.262Z,35.70
2018-07-26T16:33:39.097Z,35.50
2018-07-26T16:38:37.637Z,35.30
2018-07-26T16:41:11.622Z,35.10
2018-07-26T16:46:10.616Z,34.80
2018-07-26T16:48:51.774Z,34.50
2018-07-26T16:51:22.217Z,34.40
2018-07-26T16:53:52.104Z,34.10
2018-07-26T16:56:21.915Z,33.70
2018-07-26T17:01:29.813Z,32.90
2018-07-26T17:03:59.407Z,32.90
2018-07-26T17:06:29.221Z,32.90
2018-07-26T17:09:05.670Z,33.00
2018-07-26T17:14:11.272Z,34.20
2018-07-26T17:16:46.404Z,32.90
2018-07-26T17:19:16.293Z,29.70
2018-07-26T17:21:46.055Z,32.80
2018-07-26T17:26:52.318Z,32.10
2018-07-26T17:32:14.731Z,32.30
2018-07-26T17:34:44.338Z,32.10
2018-07-26T17:37:13.824Z,32.10
2018-07-26T17:39:51.062Z,31.90
2018-07-26T17:42:20.718Z,31.80
2018-07-26T17:44:58.212Z,31.70
2018-07-26T17:47:28.165Z,31.80
2018-07-26T17:49:58.034Z,31.60
2018-07-26T17:52:27.616Z,31.60
2018-07-26T17:54:57.168Z,35.10
2018-07-26T17:57:26.950Z,31.50
2018-07-26T17:59:56.449Z,31.30
2018-07-26T18:02:25.913Z,30.50
2018-07-26T18:04:55.473Z,31.20
2018-07-26T18:07:24.856Z,31.20
2018-07-26T18:09:54.482Z,31.30
2018-07-26T18:12:24.355Z,28.80
2018-07-26T18:15:05.677Z,31.10
2018-07-26T18:17:35.627Z,31.20
2018-07-26T18:20:05.483Z,31.10
2018-07-26T18:22:50.829Z,31.10
2018-07-26T18:25:20.680Z,32.40
2018-07-26T18:27:50.265Z,30.90
2018-07-26T18:30:19.751Z,30.80
2018-07-26T18:32:49.554Z,30.80
2018-07-26T18:35:20.105Z,30.80
2018-07-26T18:37:50.012Z,30.70
2018-07-26T18:40:19.970Z,30.60
2018-07-26T18:42:50.852Z,30.60
2018-07-26T18:45:20.445Z,30.60
2018-07-26T18:47:51.189Z,30.60
2018-07-26T18:50:21.034Z,30.60
2018-07-26T18:52:51.368Z,30.60
2018-07-26T18:55:21.742Z,30.50
2018-07-26T18:57:52.143Z,30.40
2018-07-26T19:00:22.141Z,30.30
2018-07-26T19:02:52.342Z,29.40
2018-07-26T19:05:22.215Z,30.20
2018-07-26T19:07:52.063Z,30.00
2018-07-26T19:10:21.890Z,30.00
2018-07-26T19:12:51.790Z,29.90
2018-07-26T19:15:21.894Z,29.90
2018-07-26T19:17:52.515Z,29.80
2018-07-26T19:20:23.686Z,29.80
2018-07-26T19:22:58.841Z,29.70
2018-07-26T19:25:29.700Z,29.70
2018-07-26T19:27:59.831Z,29.60
2018-07-26T19:30:29.859Z,29.50
2018-07-26T19:32:59.848Z,29.50
2018-07-26T19:35:29.952Z,29.30
2018-07-26T19:37:59.812Z,29.20
2018-07-26T19:40:30.011Z,29.10
2018-07-26T19:42:59.820Z,29.10
2018-07-26T19:45:29.784Z,29.10
2018-07-26T19:47:59.765Z,29.10
2018-07-26T19:50:29.899Z,29.10
2018-07-26T19:52:59.981Z,29.00
2018-07-26T19:55:30.038Z,28.90
2018-07-26T20:00:45.775Z,28.80
2018-07-26T20:04:35.332Z,28.70
2018-07-26T20:07:05.290Z,28.70
2018-07-26T20:09:35.946Z,28.60
2018-07-26T20:12:05.530Z,28.60
2018-07-26T20:14:35.668Z,28.60
2018-07-26T20:17:05.337Z,28.80
2018-07-26T20:19:34.959Z,28.40
2018-07-26T20:22:04.724Z,28.40
2018-07-26T20:24:34.320Z,28.20
2018-07-26T20:27:03.953Z,28.20
2018-07-26T20:29:33.890Z,28.20
2018-07-26T20:32:03.634Z,28.10
2018-07-26T20:34:33.269Z,28.10
2018-07-26T20:37:03.485Z,28.10
2018-07-26T20:39:33.440Z,28.10
2018-07-26T20:42:03.211Z,28.00
2018-07-26T20:44:42.922Z,28.00
2018-07-26T20:47:13.370Z,27.90
2018-07-26T20:49:44.201Z,27.90
2018-07-26T20:52:13.874Z,27.90
2018-07-26T20:54:43.774Z,27.90
2018-07-26T20:57:13.701Z,27.90
2018-07-26T20:59:43.367Z,27.80
2018-07-26T21:02:13.529Z,27.70
2018-07-26T21:04:44.234Z,27.70
2018-07-26T21:07:23.053Z,27.60
2018-07-26T21:09:53.475Z,27.50
2018-07-26T21:14:52.682Z,27.50
2018-07-26T21:17:22.301Z,27.40
2018-07-26T21:19:52.221Z,28.50
2018-07-26T21:22:22.339Z,26.70
2018-07-26T21:24:52.119Z,27.30
2018-07-26T21:27:21.688Z,27.30
2018-07-26T21:29:51.706Z,27.30
2018-07-26T21:32:21.452Z,27.20
2018-07-26T21:34:51.086Z,27.10
2018-07-26T21:37:21.102Z,27.00
2018-07-26T21:39:51.577Z,26.90
2018-07-26T21:42:21.231Z,26.70
2018-07-26T21:44:51.025Z,26.70
2018-07-26T21:47:21.003Z,26.60
2018-07-26T21:50:03.705Z,26.60
2018-07-26T21:52:33.696Z,26.60
2018-07-26T21:55:03.547Z,26.60
2018-07-26T21:57:33.246Z,26.60
2018-07-26T22:00:03.123Z,26.60
2018-07-26T22:02:32.905Z,26.60
2018-07-26T22:05:02.806Z,26.60
2018-07-26T22:07:42.589Z,26.60
2018-07-26T22:10:16.766Z,26.60
2018-07-26T22:12:52.518Z,26.60
2018-07-26T22:15:22.105Z,26.60
2018-07-26T22:17:59.209Z,26.50
2018-07-26T22:20:29.048Z,26.40
2018-07-26T22:22:59.354Z,28.00
2018-07-26T22:25:29.068Z,26.20
2018-07-26T22:28:06.266Z,26.20
2018-07-26T22:30:52.516Z,26.10
2018-07-26T22:33:30.986Z,26.00
2018-07-26T22:36:01.000Z,26.00
2018-07-26T22:38:37.328Z,25.90
2018-07-26T22:41:11.811Z,25.90
2018-07-26T22:43:41.348Z,25.90
2018-07-26T22:46:18.565Z,25.80
2018-07-26T22:48:53.297Z,25.80
2018-07-26T22:51:24.197Z,25.70
2018-07-26T22:53:59.319Z,25.70
2018-07-26T22:56:30.036Z,25.70
2018-07-26T22:58:59.854Z,25.70
2018-07-26T23:01:29.569Z,27.30
2018-07-26T23:04:10.303Z,25.60
